KLHB/LHB METAR and TAF weather

Enter ICAO airport designator
Station Type Date Time Source
KLHB METAR 2019/08/22 16:15 UTC NOAA

KLHB 221615Z AUTO 16005KT 10SM SCT027 32/25 A2999 RMK AO2 T03180246


Station Type Date Time Source
KLHB Decoded METAR 2019/08/22 16:15 UTC NOAA

Station name not available
Aug 22, 2019 - 12:15 PM EDT / 2019.08.22 1615 UTC
Wind: from the SSE (160 degrees) at 6 MPH (5 KT):0
Visibility: 10 mile(s):0
Sky conditions: partly cloudy
Temperature: 89.2 F (31.8 C)
Heat index: 100.6 F (38.1 C):1
Dew Point: 76.3 F (24.6 C)
Relative Humidity: 65%
Pressure (altimeter): 29.99 in. Hg (1015 hPa)
ob: KLHB 221615Z AUTO 16005KT 10SM SCT027 32/25 A2999 RMK AO2 T03180246
cycle: 16

Station Type Date Time Source
KLHB TAF UTC NOAA

Error!

Example: see airport list